Главная страница
METAR-TAF:

METAR-TAF

Аэропорты :

Росарио, Аргентина

широта: 32-55S, долгота: 060-47W, высота над уровнем моря: 25 м

Текущие метеонаблюдения

Эта сводка был подготовлена 1 час и 22 минут назад, в 17:00 UTC
Ветер 12 Узел от северо-восточный
Температура 24°C
Влажность 29%
Давление 1014 hPa
Видимость 10 км и более
Нет облачности ниже 1500 м, и нет кучево-дождевой облачности

METAR: SAAR 201700Z 05012KT CAVOK 24/05 Q1014

Время: 15:22 (18:22 UTC)

Прогноз

Эта сводка был подготовлена 1 час и 22 минут назад, в 17:00 UTC
Прогноз действительный с 20-го 18 UTC до 21-го 18 UTC
Ветер 10 Узел от северо-восточный
Видимость 10 км и более
Нет облачности ниже 1500 м, и нет кучево-дождевой облачности
изменения
С 20-го 23 UTC до 21-го 02 UTC
Ветер 5 Узел от северо-восточный
изменения
С 21-го 09 UTC до 21-го 11 UTC
Ветер 10 Узел от северный

TAF: SAAR 201700Z 2018/2118 05010KT CAVOK TX25/2019Z TN12/2110Z BECMG 2023/2102 05005KT BECMG 2109/2111 36010KT

Метеонаблюдения и прогнозы для более 4000 аэропортов (сводки METAR и TAF).

Имеющиеся станции представлены на карте желтыми и красными точками.

Чтобы увидеть название станции, наведите на нее мышь.

Затем щелкните, чтобы увидеть метеонаблюдения и метеопрогнозы.

Управление картой: чтобы увеличить масштаб, щелкните зеленые кнопки с черным крестиком; чтобы уменьшить масштаб, щелкните зеленую кнопку с тире; для просмотра соседних карт щелкайте зеленые стрелки.


METAR-TAF: